MMLP/LAP METAR and TAF weather

Enter ICAO airport designator
Station Type Date Time Source
MMLP METAR 2020/01/22 20:41 UTC NOAA

MMLP 222041Z 32008KT 10SM FEW020 SCT100 SCT220 22/14 A3003 RMK SLP169 57026 964 8/139


Station Type Date Time Source
MMLP Decoded METAR 2020/01/22 20:41 UTC NOAA

La Paz International Airport, Mexico (MMLP) 24-04N 110-22W
Jan 22, 2020 - 03:41 PM EST / 2020.01.22 2041 UTC
Wind: from the NW (320 degrees) at 9 MPH (8 KT):0
Visibility: 10 mile(s):0
Sky conditions: partly cloudy
Temperature: 71 F (22 C)
Dew Point: 57 F (14 C)
Relative Humidity: 60%
Pressure (altimeter): 30.03 in. Hg (1016 hPa)
Pressure tendency: 0.08 inches (2.6 hPa) lower than three hours ago
ob: MMLP 222041Z 32008KT 10SM FEW020 SCT100 SCT220 22/14 A3003 RMK SLP169 57026 964 8/139
cycle: 20

Station Type Date Time Source
MMLP TAF 2020/01/22 18:54 UTC NOAA

TAF MMLP 221652Z 2218/2318 36010KT P6SM SCT025 BKN240
FM230600 02008KT P6SM SCT020

Example: see airport list